sensor_id;sensor_type;location;lat;lon;timestamp;P1;durP1;ratioP1;P2;durP2;ratioP2
45684;SDS011;46836;48.388;16.210;2022-10-30T00:00:46;22.88;;;13.45;;
45684;SDS011;46836;48.388;16.210;2022-10-30T00:03:14;19.52;;;14.07;;
45684;SDS011;46836;48.388;16.210;2022-10-30T00:05:45;22.48;;;13.68;;
45684;SDS011;46836;48.388;16.210;2022-10-30T00:08:15;19.75;;;11.77;;
45684;SDS011;46836;48.388;16.210;2022-10-30T00:10:43;24.52;;;13.20;;
45684;SDS011;46836;48.388;16.210;2022-10-30T00:13:11;19.08;;;11.77;;
45684;SDS011;46836;48.388;16.210;2022-10-30T00:15:39;28.30;;;12.23;;
45684;SDS011;46836;48.388;16.210;2022-10-30T00:18:19;18.83;;;11.68;;
45684;SDS011;46836;48.388;16.210;2022-10-30T00:20:47;15.65;;;11.98;;
45684;SDS011;46836;48.388;16.210;2022-10-30T00:23:14;16.77;;;11.07;;
45684;SDS011;46836;48.388;16.210;2022-10-30T00:25:41;18.05;;;11.43;;
45684;SDS011;46836;48.388;16.210;2022-10-30T00:28:08;15.82;;;10.75;;
45684;SDS011;46836;48.388;16.210;2022-10-30T00:30:35;21.60;;;12.50;;
45684;SDS011;46836;48.388;16.210;2022-10-30T00:33:02;17.58;;;10.98;;
45684;SDS011;46836;48.388;16.210;2022-10-30T00:35:30;35.42;;;11.60;;
45684;SDS011;46836;48.388;16.210;2022-10-30T00:37:58;21.33;;;11.98;;
45684;SDS011;46836;48.388;16.210;2022-10-30T00:40:27;20.02;;;12.52;;
45684;SDS011;46836;48.388;16.210;2022-10-30T00:42:54;20.90;;;10.65;;
45684;SDS011;46836;48.388;16.210;2022-10-30T00:45:21;14.35;;;11.02;;
45684;SDS011;46836;48.388;16.210;2022-10-30T00:47:52;18.55;;;10.73;;
45684;SDS011;46836;48.388;16.210;2022-10-30T00:50:28;20.98;;;12.70;;
45684;SDS011;46836;48.388;16.210;2022-10-30T00:53:06;20.40;;;12.05;;
45684;SDS011;46836;48.388;16.210;2022-10-30T00:55:41;16.30;;;10.70;;
45684;SDS011;46836;48.388;16.210;2022-10-30T00:58:12;18.35;;;10.95;;
45684;SDS011;46836;48.388;16.210;2022-10-30T01:00:45;17.70;;;11.65;;
45684;SDS011;46836;48.388;16.210;2022-10-30T01:03:16;16.75;;;10.65;;
45684;SDS011;46836;48.388;16.210;2022-10-30T01:05:46;13.98;;;10.30;;
45684;SDS011;46836;48.388;16.210;2022-10-30T01:08:18;16.58;;;11.27;;
45684;SDS011;46836;48.388;16.210;2022-10-30T01:10:46;16.20;;;10.25;;
45684;SDS011;46836;48.388;16.210;2022-10-30T01:13:14;23.25;;;11.13;;
45684;SDS011;46836;48.388;16.210;2022-10-30T01:15:54;16.23;;;10.65;;
45684;SDS011;46836;48.388;16.210;2022-10-30T01:18:33;14.60;;;9.55;;
45684;SDS011;46836;48.388;16.210;2022-10-30T01:21:30;16.52;;;10.07;;
45684;SDS011;46836;48.388;16.210;2022-10-30T01:24:09;16.40;;;10.18;;
45684;SDS011;46836;48.388;16.210;2022-10-30T01:29:34;14.85;;;9.98;;
45684;SDS011;46836;48.388;16.210;2022-10-30T01:38:02;13.13;;;9.27;;
45684;SDS011;46836;48.388;16.210;2022-10-30T01:40:44;12.95;;;8.85;;
45684;SDS011;46836;48.388;16.210;2022-10-30T01:43:11;12.20;;;8.88;;
45684;SDS011;46836;48.388;16.210;2022-10-30T01:51:33;13.20;;;9.27;;
45684;SDS011;46836;48.388;16.210;2022-10-30T01:57:17;12.93;;;8.85;;
45684;SDS011;46836;48.388;16.210;2022-10-30T02:00:08;11.18;;;8.30;;
45684;SDS011;46836;48.388;16.210;2022-10-30T02:02:37;11.40;;;7.90;;
45684;SDS011;46836;48.388;16.210;2022-10-30T02:05:05;12.65;;;8.65;;
45684;SDS011;46836;48.388;16.210;2022-10-30T02:07:34;15.00;;;8.70;;
45684;SDS011;46836;48.388;16.210;2022-10-30T02:10:02;14.25;;;8.25;;
45684;SDS011;46836;48.388;16.210;2022-10-30T02:12:30;10.55;;;8.82;;
45684;SDS011;46836;48.388;16.210;2022-10-30T02:14:58;12.05;;;8.65;;
45684;SDS011;46836;48.388;16.210;2022-10-30T02:17:26;10.75;;;8.38;;
45684;SDS011;46836;48.388;16.210;2022-10-30T02:19:54;11.45;;;8.68;;
45684;SDS011;46836;48.388;16.210;2022-10-30T02:22:22;9.82;;;7.65;;
45684;SDS011;46836;48.388;16.210;2022-10-30T02:24:50;9.23;;;7.60;;
45684;SDS011;46836;48.388;16.210;2022-10-30T02:27:17;10.27;;;7.82;;
45684;SDS011;46836;48.388;16.210;2022-10-30T02:29:44;13.63;;;8.20;;
45684;SDS011;46836;48.388;16.210;2022-10-30T02:32:11;10.50;;;8.15;;
45684;SDS011;46836;48.388;16.210;2022-10-30T02:34:38;10.68;;;8.45;;
45684;SDS011;46836;48.388;16.210;2022-10-30T02:37:05;10.63;;;7.60;;
45684;SDS011;46836;48.388;16.210;2022-10-30T02:39:32;11.93;;;7.75;;
45684;SDS011;46836;48.388;16.210;2022-10-30T02:41:59;11.38;;;7.78;;
45684;SDS011;46836;48.388;16.210;2022-10-30T02:44:27;10.85;;;7.82;;
45684;SDS011;46836;48.388;16.210;2022-10-30T02:46:54;9.18;;;7.18;;
45684;SDS011;46836;48.388;16.210;2022-10-30T02:49:21;10.10;;;7.88;;
45684;SDS011;46836;48.388;16.210;2022-10-30T02:51:48;9.88;;;6.57;;
45684;SDS011;46836;48.388;16.210;2022-10-30T02:54:15;9.23;;;7.30;;
45684;SDS011;46836;48.388;16.210;2022-10-30T02:56:42;9.68;;;7.53;;
45684;SDS011;46836;48.388;16.210;2022-10-30T02:59:09;11.60;;;6.93;;
45684;SDS011;46836;48.388;16.210;2022-10-30T03:01:36;10.73;;;7.80;;
45684;SDS011;46836;48.388;16.210;2022-10-30T03:04:03;10.43;;;7.30;;
45684;SDS011;46836;48.388;16.210;2022-10-30T03:06:30;13.18;;;7.57;;
45684;SDS011;46836;48.388;16.210;2022-10-30T03:08:58;7.80;;;6.90;;
45684;SDS011;46836;48.388;16.210;2022-10-30T03:11:25;7.78;;;6.78;;
45684;SDS011;46836;48.388;16.210;2022-10-30T03:13:52;9.10;;;7.25;;
45684;SDS011;46836;48.388;16.210;2022-10-30T03:16:23;9.70;;;7.25;;
45684;SDS011;46836;48.388;16.210;2022-10-30T03:18:54;6.68;;;5.82;;
45684;SDS011;46836;48.388;16.210;2022-10-30T03:21:23;8.75;;;6.95;;
45684;SDS011;46836;48.388;16.210;2022-10-30T03:23:52;7.40;;;6.18;;
45684;SDS011;46836;48.388;16.210;2022-10-30T03:26:20;9.70;;;5.88;;
45684;SDS011;46836;48.388;16.210;2022-10-30T03:28:48;8.43;;;6.65;;
45684;SDS011;46836;48.388;16.210;2022-10-30T03:31:16;7.65;;;6.00;;
45684;SDS011;46836;48.388;16.210;2022-10-30T03:33:44;6.80;;;6.10;;
45684;SDS011;46836;48.388;16.210;2022-10-30T03:36:12;7.95;;;6.57;;
45684;SDS011;46836;48.388;16.210;2022-10-30T03:38:40;6.80;;;5.97;;
45684;SDS011;46836;48.388;16.210;2022-10-30T03:41:07;7.43;;;6.32;;
45684;SDS011;46836;48.388;16.210;2022-10-30T03:43:35;8.70;;;6.72;;
45684;SDS011;46836;48.388;16.210;2022-10-30T03:46:01;7.40;;;6.50;;
45684;SDS011;46836;48.388;16.210;2022-10-30T03:48:29;7.10;;;6.15;;
45684;SDS011;46836;48.388;16.210;2022-10-30T03:50:57;9.02;;;7.18;;
45684;SDS011;46836;48.388;16.210;2022-10-30T03:53:25;8.25;;;6.93;;
45684;SDS011;46836;48.388;16.210;2022-10-30T03:55:57;7.97;;;5.90;;
45684;SDS011;46836;48.388;16.210;2022-10-30T03:58:27;7.80;;;6.90;;
45684;SDS011;46836;48.388;16.210;2022-10-30T04:01:02;9.10;;;6.90;;
45684;SDS011;46836;48.388;16.210;2022-10-30T04:03:31;8.88;;;7.60;;
45684;SDS011;46836;48.388;16.210;2022-10-30T04:05:58;8.63;;;6.90;;
45684;SDS011;46836;48.388;16.210;2022-10-30T04:08:26;10.88;;;7.95;;
45684;SDS011;46836;48.388;16.210;2022-10-30T04:10:53;8.68;;;7.10;;
45684;SDS011;46836;48.388;16.210;2022-10-30T04:13:20;8.00;;;6.28;;
45684;SDS011;46836;48.388;16.210;2022-10-30T04:15:47;11.25;;;7.45;;
45684;SDS011;46836;48.388;16.210;2022-10-30T04:18:23;10.82;;;7.88;;
45684;SDS011;46836;48.388;16.210;2022-10-30T04:20:51;9.25;;;6.95;;
45684;SDS011;46836;48.388;16.210;2022-10-30T04:23:19;9.57;;;6.65;;
45684;SDS011;46836;48.388;16.210;2022-10-30T04:25:47;9.10;;;7.50;;
45684;SDS011;46836;48.388;16.210;2022-10-30T04:28:14;8.90;;;6.60;;
45684;SDS011;46836;48.388;16.210;2022-10-30T04:30:41;7.45;;;6.65;;
45684;SDS011;46836;48.388;16.210;2022-10-30T04:33:10;7.90;;;6.80;;
45684;SDS011;46836;48.388;16.210;2022-10-30T04:35:38;9.10;;;6.55;;
45684;SDS011;46836;48.388;16.210;2022-10-30T04:38:07;9.65;;;7.03;;
45684;SDS011;46836;48.388;16.210;2022-10-30T04:40:36;8.98;;;7.50;;
45684;SDS011;46836;48.388;16.210;2022-10-30T04:43:05;9.45;;;7.05;;
45684;SDS011;46836;48.388;16.210;2022-10-30T04:45:33;8.27;;;6.78;;
45684;SDS011;46836;48.388;16.210;2022-10-30T04:48:01;6.93;;;5.88;;
45684;SDS011;46836;48.388;16.210;2022-10-30T04:50:32;7.38;;;6.20;;
45684;SDS011;46836;48.388;16.210;2022-10-30T04:53:03;6.93;;;6.20;;
45684;SDS011;46836;48.388;16.210;2022-10-30T04:55:32;8.77;;;6.93;;
45684;SDS011;46836;48.388;16.210;2022-10-30T04:58:00;9.98;;;7.72;;
45684;SDS011;46836;48.388;16.210;2022-10-30T05:00:30;8.15;;;7.25;;
45684;SDS011;46836;48.388;16.210;2022-10-30T05:03:00;11.25;;;7.78;;
45684;SDS011;46836;48.388;16.210;2022-10-30T05:05:28;7.95;;;6.82;;
45684;SDS011;46836;48.388;16.210;2022-10-30T05:07:56;8.50;;;6.88;;
45684;SDS011;46836;48.388;16.210;2022-10-30T05:10:24;8.00;;;7.03;;
45684;SDS011;46836;48.388;16.210;2022-10-30T05:12:51;7.75;;;6.43;;
45684;SDS011;46836;48.388;16.210;2022-10-30T05:15:19;8.25;;;7.00;;
45684;SDS011;46836;48.388;16.210;2022-10-30T05:17:49;11.15;;;6.82;;
45684;SDS011;46836;48.388;16.210;2022-10-30T05:20:19;7.13;;;6.18;;
45684;SDS011;46836;48.388;16.210;2022-10-30T05:22:53;6.65;;;5.60;;
45684;SDS011;46836;48.388;16.210;2022-10-30T05:25:22;8.65;;;7.10;;
45684;SDS011;46836;48.388;16.210;2022-10-30T05:27:49;11.70;;;6.93;;
45684;SDS011;46836;48.388;16.210;2022-10-30T05:30:16;7.50;;;6.50;;
45684;SDS011;46836;48.388;16.210;2022-10-30T05:32:43;9.18;;;5.80;;
45684;SDS011;46836;48.388;16.210;2022-10-30T05:35:10;7.75;;;6.32;;
45684;SDS011;46836;48.388;16.210;2022-10-30T05:37:38;8.32;;;6.80;;
45684;SDS011;46836;48.388;16.210;2022-10-30T05:40:05;17.77;;;7.00;;
45684;SDS011;46836;48.388;16.210;2022-10-30T05:42:32;7.60;;;6.00;;
45684;SDS011;46836;48.388;16.210;2022-10-30T05:44:59;7.57;;;5.90;;
45684;SDS011;46836;48.388;16.210;2022-10-30T05:47:27;7.78;;;5.72;;
45684;SDS011;46836;48.388;16.210;2022-10-30T05:49:54;6.43;;;5.60;;
45684;SDS011;46836;48.388;16.210;2022-10-30T05:52:21;8.52;;;5.70;;
45684;SDS011;46836;48.388;16.210;2022-10-30T05:54:48;8.88;;;6.20;;
45684;SDS011;46836;48.388;16.210;2022-10-30T05:57:15;6.90;;;6.10;;
45684;SDS011;46836;48.388;16.210;2022-10-30T05:59:42;6.15;;;5.55;;
45684;SDS011;46836;48.388;16.210;2022-10-30T06:02:09;7.13;;;6.13;;
45684;SDS011;46836;48.388;16.210;2022-10-30T06:04:36;8.32;;;6.35;;
45684;SDS011;46836;48.388;16.210;2022-10-30T06:07:03;8.35;;;6.32;;
45684;SDS011;46836;48.388;16.210;2022-10-30T06:09:30;7.03;;;5.82;;
45684;SDS011;46836;48.388;16.210;2022-10-30T06:11:57;6.75;;;5.78;;
45684;SDS011;46836;48.388;16.210;2022-10-30T06:14:24;8.85;;;6.10;;
45684;SDS011;46836;48.388;16.210;2022-10-30T06:16:51;6.15;;;5.10;;
45684;SDS011;46836;48.388;16.210;2022-10-30T06:19:18;6.85;;;5.60;;
45684;SDS011;46836;48.388;16.210;2022-10-30T06:21:46;6.53;;;5.38;;
45684;SDS011;46836;48.388;16.210;2022-10-30T06:24:13;6.30;;;5.40;;
45684;SDS011;46836;48.388;16.210;2022-10-30T06:26:40;9.95;;;6.68;;
45684;SDS011;46836;48.388;16.210;2022-10-30T06:29:07;9.27;;;5.97;;
45684;SDS011;46836;48.388;16.210;2022-10-30T06:31:34;7.18;;;5.57;;
45684;SDS011;46836;48.388;16.210;2022-10-30T06:34:01;6.22;;;5.55;;
45684;SDS011;46836;48.388;16.210;2022-10-30T06:36:29;6.30;;;5.57;;
45684;SDS011;46836;48.388;16.210;2022-10-30T06:38:56;6.47;;;5.28;;
45684;SDS011;46836;48.388;16.210;2022-10-30T06:41:23;5.70;;;4.78;;
45684;SDS011;46836;48.388;16.210;2022-10-30T06:43:55;6.18;;;5.40;;
45684;SDS011;46836;48.388;16.210;2022-10-30T06:46:22;5.45;;;4.60;;
45684;SDS011;46836;48.388;16.210;2022-10-30T06:48:56;5.40;;;4.90;;
45684;SDS011;46836;48.388;16.210;2022-10-30T06:51:23;5.68;;;4.95;;
45684;SDS011;46836;48.388;16.210;2022-10-30T06:53:50;4.95;;;4.45;;
45684;SDS011;46836;48.388;16.210;2022-10-30T06:56:17;5.47;;;4.85;;
45684;SDS011;46836;48.388;16.210;2022-10-30T06:58:44;5.30;;;4.80;;
45684;SDS011;46836;48.388;16.210;2022-10-30T07:01:11;6.90;;;5.55;;
45684;SDS011;46836;48.388;16.210;2022-10-30T07:03:38;7.45;;;4.68;;
45684;SDS011;46836;48.388;16.210;2022-10-30T07:06:05;5.97;;;5.38;;
45684;SDS011;46836;48.388;16.210;2022-10-30T07:08:33;5.88;;;5.05;;
45684;SDS011;46836;48.388;16.210;2022-10-30T07:11:00;6.72;;;4.75;;
45684;SDS011;46836;48.388;16.210;2022-10-30T07:13:27;10.25;;;5.53;;
45684;SDS011;46836;48.388;16.210;2022-10-30T07:15:54;8.30;;;4.70;;
45684;SDS011;46836;48.388;16.210;2022-10-30T07:18:24;6.65;;;5.10;;
45684;SDS011;46836;48.388;16.210;2022-10-30T07:20:54;4.90;;;4.20;;
45684;SDS011;46836;48.388;16.210;2022-10-30T07:23:22;7.40;;;4.70;;
45684;SDS011;46836;48.388;16.210;2022-10-30T07:25:49;11.38;;;5.50;;
45684;SDS011;46836;48.388;16.210;2022-10-30T07:28:16;6.18;;;4.95;;
45684;SDS011;46836;48.388;16.210;2022-10-30T07:30:43;6.47;;;5.20;;
45684;SDS011;46836;48.388;16.210;2022-10-30T07:33:10;7.85;;;5.72;;
45684;SDS011;46836;48.388;16.210;2022-10-30T07:35:37;9.90;;;5.65;;
45684;SDS011;46836;48.388;16.210;2022-10-30T07:38:05;7.05;;;5.10;;
45684;SDS011;46836;48.388;16.210;2022-10-30T07:40:36;7.07;;;5.22;;
45684;SDS011;46836;48.388;16.210;2022-10-30T07:43:03;8.25;;;5.43;;
45684;SDS011;46836;48.388;16.210;2022-10-30T07:45:31;6.65;;;5.55;;
45684;SDS011;46836;48.388;16.210;2022-10-30T07:47:59;11.05;;;5.32;;
45684;SDS011;46836;48.388;16.210;2022-10-30T07:50:27;6.82;;;5.13;;
45684;SDS011;46836;48.388;16.210;2022-10-30T07:52:55;6.35;;;5.28;;
45684;SDS011;46836;48.388;16.210;2022-10-30T07:55:22;6.85;;;5.80;;
45684;SDS011;46836;48.388;16.210;2022-10-30T07:57:50;7.00;;;5.97;;
45684;SDS011;46836;48.388;16.210;2022-10-30T08:00:21;7.72;;;6.18;;
45684;SDS011;46836;48.388;16.210;2022-10-30T08:02:48;8.85;;;6.35;;
45684;SDS011;46836;48.388;16.210;2022-10-30T08:05:17;6.05;;;4.82;;
45684;SDS011;46836;48.388;16.210;2022-10-30T08:07:45;9.05;;;5.85;;
45684;SDS011;46836;48.388;16.210;2022-10-30T08:10:13;7.78;;;6.18;;
45684;SDS011;46836;48.388;16.210;2022-10-30T08:12:41;8.27;;;5.50;;
45684;SDS011;46836;48.388;16.210;2022-10-30T08:15:10;8.60;;;6.45;;
45684;SDS011;46836;48.388;16.210;2022-10-30T08:17:42;9.98;;;7.15;;
45684;SDS011;46836;48.388;16.210;2022-10-30T08:20:11;8.98;;;7.10;;
45684;SDS011;46836;48.388;16.210;2022-10-30T08:22:43;8.32;;;6.78;;
45684;SDS011;46836;48.388;16.210;2022-10-30T08:25:12;8.82;;;7.40;;
45684;SDS011;46836;48.388;16.210;2022-10-30T08:27:48;8.80;;;7.05;;
45684;SDS011;46836;48.388;16.210;2022-10-30T08:30:27;12.20;;;7.43;;
45684;SDS011;46836;48.388;16.210;2022-10-30T08:33:00;7.80;;;6.00;;
45684;SDS011;46836;48.388;16.210;2022-10-30T08:35:30;9.23;;;6.70;;
45684;SDS011;46836;48.388;16.210;2022-10-30T08:37:58;8.25;;;7.05;;
45684;SDS011;46836;48.388;16.210;2022-10-30T08:40:31;8.27;;;6.40;;
45684;SDS011;46836;48.388;16.210;2022-10-30T08:42:58;10.27;;;6.25;;
45684;SDS011;46836;48.388;16.210;2022-10-30T08:45:28;9.38;;;6.72;;
45684;SDS011;46836;48.388;16.210;2022-10-30T08:48:00;11.45;;;6.88;;
45684;SDS011;46836;48.388;16.210;2022-10-30T08:50:30;7.78;;;6.63;;
45684;SDS011;46836;48.388;16.210;2022-10-30T08:53:02;6.00;;;5.30;;
45684;SDS011;46836;48.388;16.210;2022-10-30T08:55:31;7.65;;;6.00;;
45684;SDS011;46836;48.388;16.210;2022-10-30T08:57:59;6.53;;;5.68;;
45684;SDS011;46836;48.388;16.210;2022-10-30T09:00:27;7.07;;;6.10;;
45684;SDS011;46836;48.388;16.210;2022-10-30T09:02:54;6.88;;;5.50;;
45684;SDS011;46836;48.388;16.210;2022-10-30T09:05:23;6.47;;;5.45;;
45684;SDS011;46836;48.388;16.210;2022-10-30T09:07:54;10.52;;;6.55;;
45684;SDS011;46836;48.388;16.210;2022-10-30T09:10:23;7.40;;;6.30;;
45684;SDS011;46836;48.388;16.210;2022-10-30T09:12:54;7.20;;;5.70;;
45684;SDS011;46836;48.388;16.210;2022-10-30T09:15:22;6.85;;;5.93;;
45684;SDS011;46836;48.388;16.210;2022-10-30T09:17:58;7.70;;;6.35;;
45684;SDS011;46836;48.388;16.210;2022-10-30T09:20:28;7.00;;;6.18;;
45684;SDS011;46836;48.388;16.210;2022-10-30T09:22:55;6.85;;;6.13;;
45684;SDS011;46836;48.388;16.210;2022-10-30T09:25:24;6.53;;;5.28;;
45684;SDS011;46836;48.388;16.210;2022-10-30T09:27:51;6.10;;;5.30;;
45684;SDS011;46836;48.388;16.210;2022-10-30T09:30:19;6.40;;;5.70;;
45684;SDS011;46836;48.388;16.210;2022-10-30T09:32:52;11.80;;;6.30;;
45684;SDS011;46836;48.388;16.210;2022-10-30T09:35:24;6.72;;;5.45;;
45684;SDS011;46836;48.388;16.210;2022-10-30T09:37:52;8.07;;;6.90;;
45684;SDS011;46836;48.388;16.210;2022-10-30T09:40:41;7.55;;;6.00;;
45684;SDS011;46836;48.388;16.210;2022-10-30T09:43:16;6.88;;;5.70;;
45684;SDS011;46836;48.388;16.210;2022-10-30T09:52:25;6.47;;;5.88;;
45684;SDS011;46836;48.388;16.210;2022-10-30T09:55:00;8.05;;;6.40;;
45684;SDS011;46836;48.388;16.210;2022-10-30T10:00:29;11.77;;;7.97;;
45684;SDS011;46836;48.388;16.210;2022-10-30T10:03:11;13.05;;;8.63;;
45684;SDS011;46836;48.388;16.210;2022-10-30T10:05:59;9.73;;;6.43;;
45684;SDS011;46836;48.388;16.210;2022-10-30T10:08:39;11.82;;;8.38;;
45684;SDS011;46836;48.388;16.210;2022-10-30T10:11:29;9.30;;;7.97;;
45684;SDS011;46836;48.388;16.210;2022-10-30T10:14:20;9.80;;;7.45;;
45684;SDS011;46836;48.388;16.210;2022-10-30T10:16:52;9.25;;;7.57;;
45684;SDS011;46836;48.388;16.210;2022-10-30T10:19:27;11.07;;;8.30;;
45684;SDS011;46836;48.388;16.210;2022-10-30T10:22:37;10.68;;;7.22;;
45684;SDS011;46836;48.388;16.210;2022-10-30T10:25:10;8.80;;;6.40;;
45684;SDS011;46836;48.388;16.210;2022-10-30T10:30:25;7.45;;;6.65;;
45684;SDS011;46836;48.388;16.210;2022-10-30T10:40:59;8.65;;;7.15;;
45684;SDS011;46836;48.388;16.210;2022-10-30T10:43:57;11.35;;;6.03;;
45684;SDS011;46836;48.388;16.210;2022-10-30T10:52:07;9.45;;;6.00;;
45684;SDS011;46836;48.388;16.210;2022-10-30T10:54:41;7.90;;;6.47;;
45684;SDS011;46836;48.388;16.210;2022-10-30T10:57:14;7.35;;;5.65;;
45684;SDS011;46836;48.388;16.210;2022-10-30T10:59:51;9.90;;;6.88;;
45684;SDS011;46836;48.388;16.210;2022-10-30T11:08:00;9.13;;;7.25;;
45684;SDS011;46836;48.388;16.210;2022-10-30T11:10:40;10.45;;;7.47;;
45684;SDS011;46836;48.388;16.210;2022-10-30T11:13:10;10.88;;;7.40;;
45684;SDS011;46836;48.388;16.210;2022-10-30T11:15:59;10.27;;;8.02;;
45684;SDS011;46836;48.388;16.210;2022-10-30T11:18:32;11.77;;;8.07;;
45684;SDS011;46836;48.388;16.210;2022-10-30T11:21:08;8.90;;;7.28;;
45684;SDS011;46836;48.388;16.210;2022-10-30T11:23:48;9.50;;;7.55;;
45684;SDS011;46836;48.388;16.210;2022-10-30T11:31:18;11.88;;;8.73;;
45684;SDS011;46836;48.388;16.210;2022-10-30T11:33:53;16.40;;;8.65;;
45684;SDS011;46836;48.388;16.210;2022-10-30T11:36:21;12.55;;;9.10;;
45684;SDS011;46836;48.388;16.210;2022-10-30T11:38:50;11.27;;;9.10;;
45684;SDS011;46836;48.388;16.210;2022-10-30T11:41:17;12.23;;;8.90;;
45684;SDS011;46836;48.388;16.210;2022-10-30T11:43:46;11.98;;;8.55;;
45684;SDS011;46836;48.388;16.210;2022-10-30T11:46:19;11.68;;;9.10;;
45684;SDS011;46836;48.388;16.210;2022-10-30T11:48:49;11.52;;;8.82;;
45684;SDS011;46836;48.388;16.210;2022-10-30T11:51:30;11.70;;;8.43;;
45684;SDS011;46836;48.388;16.210;2022-10-30T11:54:03;12.18;;;8.88;;
45684;SDS011;46836;48.388;16.210;2022-10-30T11:56:32;9.95;;;8.13;;
45684;SDS011;46836;48.388;16.210;2022-10-30T11:59:01;11.07;;;9.10;;
45684;SDS011;46836;48.388;16.210;2022-10-30T12:01:33;11.85;;;8.70;;
45684;SDS011;46836;48.388;16.210;2022-10-30T12:04:12;13.50;;;9.57;;
45684;SDS011;46836;48.388;16.210;2022-10-30T12:09:43;13.63;;;9.93;;
45684;SDS011;46836;48.388;16.210;2022-10-30T12:12:29;13.30;;;9.20;;
45684;SDS011;46836;48.388;16.210;2022-10-30T12:17:53;15.45;;;10.93;;
45684;SDS011;46836;48.388;16.210;2022-10-30T12:20:26;13.50;;;9.85;;
45684;SDS011;46836;48.388;16.210;2022-10-30T12:22:54;13.43;;;9.68;;
45684;SDS011;46836;48.388;16.210;2022-10-30T12:25:24;14.00;;;11.23;;
45684;SDS011;46836;48.388;16.210;2022-10-30T12:28:07;14.15;;;10.77;;
45684;SDS011;46836;48.388;16.210;2022-10-30T12:30:44;13.52;;;9.88;;
45684;SDS011;46836;48.388;16.210;2022-10-30T12:33:23;19.25;;;11.27;;
45684;SDS011;46836;48.388;16.210;2022-10-30T12:35:59;14.80;;;11.73;;
45684;SDS011;46836;48.388;16.210;2022-10-30T12:38:32;14.45;;;10.68;;
45684;SDS011;46836;48.388;16.210;2022-10-30T12:41:15;18.30;;;12.02;;
45684;SDS011;46836;48.388;16.210;2022-10-30T12:52:18;19.33;;;13.20;;
45684;SDS011;46836;48.388;16.210;2022-10-30T12:54:53;20.55;;;13.15;;
45684;SDS011;46836;48.388;16.210;2022-10-30T13:00:44;20.42;;;13.85;;
45684;SDS011;46836;48.388;16.210;2022-10-30T13:03:49;19.42;;;12.38;;
45684;SDS011;46836;48.388;16.210;2022-10-30T13:06:30;16.42;;;11.80;;
45684;SDS011;46836;48.388;16.210;2022-10-30T13:11:54;20.08;;;12.52;;
45684;SDS011;46836;48.388;16.210;2022-10-30T13:14:35;22.30;;;13.80;;
45684;SDS011;46836;48.388;16.210;2022-10-30T13:17:09;23.00;;;14.90;;
45684;SDS011;46836;48.388;16.210;2022-10-30T13:19:41;20.55;;;14.60;;
45684;SDS011;46836;48.388;16.210;2022-10-30T13:22:15;21.45;;;14.98;;
45684;SDS011;46836;48.388;16.210;2022-10-30T13:27:51;20.00;;;13.05;;
45684;SDS011;46836;48.388;16.210;2022-10-30T13:30:33;27.23;;;16.55;;
45684;SDS011;46836;48.388;16.210;2022-10-30T13:33:23;24.58;;;17.15;;
45684;SDS011;46836;48.388;16.210;2022-10-30T13:38:58;29.63;;;18.25;;
45684;SDS011;46836;48.388;16.210;2022-10-30T13:44:29;32.58;;;18.13;;
45684;SDS011;46836;48.388;16.210;2022-10-30T13:52:54;33.85;;;20.33;;
45684;SDS011;46836;48.388;16.210;2022-10-30T13:55:27;32.72;;;20.48;;
45684;SDS011;46836;48.388;16.210;2022-10-30T14:09:26;34.80;;;21.65;;
45684;SDS011;46836;48.388;16.210;2022-10-30T14:12:41;40.25;;;24.35;;
45684;SDS011;46836;48.388;16.210;2022-10-30T14:28:31;48.20;;;26.38;;
45684;SDS011;46836;48.388;16.210;2022-10-30T14:31:01;47.92;;;24.83;;
45684;SDS011;46836;48.388;16.210;2022-10-30T14:33:39;46.58;;;25.40;;
45684;SDS011;46836;48.388;16.210;2022-10-30T14:36:14;45.75;;;25.83;;
45684;SDS011;46836;48.388;16.210;2022-10-30T14:38:57;48.78;;;25.50;;
45684;SDS011;46836;48.388;16.210;2022-10-30T14:41:31;57.13;;;26.10;;
45684;SDS011;46836;48.388;16.210;2022-10-30T14:44:18;51.05;;;25.60;;
45684;SDS011;46836;48.388;16.210;2022-10-30T14:49:55;52.25;;;26.95;;
45684;SDS011;46836;48.388;16.210;2022-10-30T14:55:24;52.55;;;25.85;;
45684;SDS011;46836;48.388;16.210;2022-10-30T15:00:36;52.65;;;27.55;;
45684;SDS011;46836;48.388;16.210;2022-10-30T15:05:44;52.83;;;26.45;;
45684;SDS011;46836;48.388;16.210;2022-10-30T15:14:07;60.20;;;28.10;;
45684;SDS011;46836;48.388;16.210;2022-10-30T15:16:47;67.22;;;28.30;;
45684;SDS011;46836;48.388;16.210;2022-10-30T15:19:18;58.13;;;27.88;;
45684;SDS011;46836;48.388;16.210;2022-10-30T15:21:52;59.58;;;27.88;;
45684;SDS011;46836;48.388;16.210;2022-10-30T15:24:24;65.30;;;29.02;;
45684;SDS011;46836;48.388;16.210;2022-10-30T15:26:58;59.65;;;27.85;;
45684;SDS011;46836;48.388;16.210;2022-10-30T15:29:30;62.45;;;27.15;;
45684;SDS011;46836;48.388;16.210;2022-10-30T15:32:01;62.67;;;28.58;;
45684;SDS011;46836;48.388;16.210;2022-10-30T15:34:51;55.60;;;28.17;;
45684;SDS011;46836;48.388;16.210;2022-10-30T15:37:21;61.60;;;28.10;;
45684;SDS011;46836;48.388;16.210;2022-10-30T15:40:10;59.45;;;27.75;;
45684;SDS011;46836;48.388;16.210;2022-10-30T15:42:43;69.07;;;28.20;;
45684;SDS011;46836;48.388;16.210;2022-10-30T15:45:20;60.25;;;27.20;;
45684;SDS011;46836;48.388;16.210;2022-10-30T15:47:54;58.60;;;26.90;;
45684;SDS011;46836;48.388;16.210;2022-10-30T15:50:28;58.08;;;25.63;;
45684;SDS011;46836;48.388;16.210;2022-10-30T15:52:57;69.55;;;28.45;;
45684;SDS011;46836;48.388;16.210;2022-10-30T15:55:27;59.10;;;26.88;;
45684;SDS011;46836;48.388;16.210;2022-10-30T15:58:01;65.43;;;28.10;;
45684;SDS011;46836;48.388;16.210;2022-10-30T16:00:34;64.75;;;27.17;;
45684;SDS011;46836;48.388;16.210;2022-10-30T16:03:21;59.67;;;26.58;;
45684;SDS011;46836;48.388;16.210;2022-10-30T16:05:49;62.20;;;27.02;;
45684;SDS011;46836;48.388;16.210;2022-10-30T16:08:20;63.70;;;28.27;;
45684;SDS011;46836;48.388;16.210;2022-10-30T16:10:53;67.90;;;29.00;;
45684;SDS011;46836;48.388;16.210;2022-10-30T16:13:22;63.60;;;27.95;;
45684;SDS011;46836;48.388;16.210;2022-10-30T16:15:54;60.53;;;27.38;;
45684;SDS011;46836;48.388;16.210;2022-10-30T16:18:23;60.10;;;28.00;;
45684;SDS011;46836;48.388;16.210;2022-10-30T16:20:59;61.17;;;27.70;;
45684;SDS011;46836;48.388;16.210;2022-10-30T16:23:37;61.95;;;28.00;;
45684;SDS011;46836;48.388;16.210;2022-10-30T16:26:18;66.50;;;27.60;;
45684;SDS011;46836;48.388;16.210;2022-10-30T16:31:44;62.72;;;28.63;;
45684;SDS011;46836;48.388;16.210;2022-10-30T16:36:51;55.72;;;26.98;;
45684;SDS011;46836;48.388;16.210;2022-10-30T16:39:23;66.13;;;28.42;;
45684;SDS011;46836;48.388;16.210;2022-10-30T16:41:56;64.43;;;27.35;;
45684;SDS011;46836;48.388;16.210;2022-10-30T16:44:25;62.75;;;29.15;;
45684;SDS011;46836;48.388;16.210;2022-10-30T16:47:03;60.00;;;26.88;;
45684;SDS011;46836;48.388;16.210;2022-10-30T16:49:33;54.92;;;27.90;;
45684;SDS011;46836;48.388;16.210;2022-10-30T16:52:03;59.83;;;27.83;;
45684;SDS011;46836;48.388;16.210;2022-10-30T16:54:37;64.88;;;27.65;;
45684;SDS011;46836;48.388;16.210;2022-10-30T16:57:09;52.65;;;28.25;;
45684;SDS011;46836;48.388;16.210;2022-10-30T16:59:48;65.03;;;30.63;;
45684;SDS011;46836;48.388;16.210;2022-10-30T17:02:19;51.65;;;26.73;;
45684;SDS011;46836;48.388;16.210;2022-10-30T17:04:50;57.10;;;27.25;;